Time;durP1;ratioP1;P1;durP2;ratioP2;P2;SDS_P1;SDS_P2;PMS_P1;PMS_P2;Temp;Humidity;BMP_temperature;BMP_pressure;BME280_temperature;BME280_humidity;BME280_pressure;Samples;Min_cycle;Max_cycle;Signal;HPM_P1;HPM_P2
2022/07/24 00:00:44;;;;;;;;;;;;;;;23.70;52.13;101561.81;1044356;28;709;-76
2022/07/24 00:01:35;;;;;;;;;;;;;;;23.68;51.95;101563.00;1044853;28;656;-76
2022/07/24 00:02:25;;;;;;;;;;;;;;;23.68;52.30;101565.72;1049208;28;764;-76
2022/07/24 00:03:16;;;;;;;;;;;;;;;23.66;52.27;101567.75;1049279;28;613;-76
2022/07/24 00:04:06;;;;;;;;;;;;;;;23.66;52.26;101562.31;1044198;28;659;-76
2022/07/24 00:04:57;;;;;;;;;;;;;;;23.65;51.83;101564.16;1044291;28;627;-76
2022/07/24 00:05:47;;;;;;;;;;;;;;;23.66;51.87;101557.72;1049127;28;658;-76
2022/07/24 00:06:37;;;;;;;;;;;;;;;23.65;51.89;101560.59;1049349;28;629;-76
2022/07/24 00:07:28;;;;;;;;;;;;;;;23.64;52.19;101557.06;1048164;28;1385;-75
2022/07/24 00:08:18;;;;;;;;;;;;;;;23.64;51.95;101551.59;1048428;28;626;-76
2022/07/24 00:09:09;;;;;;;;;;;;;;;23.64;52.23;101556.19;1048404;28;657;-76
2022/07/24 00:09:59;;;;;;;;;;;;;;;23.64;52.45;101559.78;1044723;28;626;-76
2022/07/24 00:10:50;;;;;;;;;;;;;;;23.65;51.95;101547.00;1044682;28;748;-75
2022/07/24 00:11:40;;;;;;;;;;;;;;;23.63;52.33;101551.78;1044489;28;769;-76
2022/07/24 00:12:30;;;;;;;;;;;;;;;23.63;52.26;101552.63;1048487;28;684;-76
2022/07/24 00:13:21;;;;;;;;;;;;;;;23.65;51.89;101553.28;1047904;28;1010;-76
2022/07/24 00:14:11;;;;;;;;;;;;;;;23.62;52.11;101550.94;1044823;28;685;-76
2022/07/24 00:15:02;;;;;;;;;;;;;;;23.60;52.06;101544.78;1044474;28;658;-76
2022/07/24 00:15:52;;;;;;;;;;;;;;;23.61;52.38;101540.19;1044585;28;641;-76
2022/07/24 00:16:43;;;;;;;;;;;;;;;23.61;51.83;101546.50;1044674;28;712;-76
2022/07/24 00:17:33;;;;;;;;;;;;;;;23.61;52.01;101551.94;1044579;28;610;-76
2022/07/24 00:18:23;;;;;;;;;;;;;;;23.61;51.84;101545.66;1044482;28;1953;-76
2022/07/24 00:19:14;;;;;;;;;;;;;;;23.59;52.11;101545.81;1044410;28;583;-75
2022/07/24 00:20:04;;;;;;;;;;;;;;;23.58;52.31;101546.81;1044526;28;658;-76
2022/07/24 00:20:55;;;;;;;;;;;;;;;23.57;52.43;101542.41;1044363;28;681;-76
2022/07/24 00:21:45;;;;;;;;;;;;;;;23.56;52.00;101550.72;1044528;28;800;-76
2022/07/24 00:22:36;;;;;;;;;;;;;;;23.56;51.98;101554.31;1044676;28;665;-76
2022/07/24 00:23:26;;;;;;;;;;;;;;;23.56;52.05;101542.56;1044577;28;636;-76
2022/07/24 00:24:16;;;;;;;;;;;;;;;23.55;51.94;101544.44;1044536;28;666;-76
2022/07/24 00:25:07;;;;;;;;;;;;;;;23.57;52.16;101550.56;1044508;28;630;-76
2022/07/24 00:25:57;;;;;;;;;;;;;;;23.60;52.46;101550.22;1044510;28;685;-76
2022/07/24 00:26:48;;;;;;;;;;;;;;;23.61;51.91;101549.22;1044344;28;669;-76
2022/07/24 00:27:38;;;;;;;;;;;;;;;23.62;52.09;101556.38;1044161;28;634;-76
2022/07/24 00:28:28;;;;;;;;;;;;;;;23.59;51.87;101558.56;1044554;28;666;-76
2022/07/24 00:29:19;;;;;;;;;;;;;;;23.57;52.38;101553.28;1048442;28;668;-76
2022/07/24 00:30:09;;;;;;;;;;;;;;;23.58;52.59;101551.41;1048424;28;594;-76
2022/07/24 00:31:00;;;;;;;;;;;;;;;23.59;52.23;101553.97;1044630;28;649;-75
2022/07/24 00:31:50;;;;;;;;;;;;;;;23.64;52.59;101550.75;1044478;28;799;-75
2022/07/24 00:32:41;;;;;;;;;;;;;;;23.63;51.69;101549.91;1044557;28;698;-75
2022/07/24 00:33:31;;;;;;;;;;;;;;;23.62;52.09;101550.94;1044484;28;645;-75
2022/07/24 00:34:21;;;;;;;;;;;;;;;23.62;51.91;101542.75;1048424;28;716;-77
2022/07/24 00:35:13;;;;;;;;;;;;;;;23.63;52.10;101549.91;1048300;28;636;-76
2022/07/24 00:36:03;;;;;;;;;;;;;;;23.61;51.78;101546.50;1044639;28;733;-77
2022/07/24 00:36:54;;;;;;;;;;;;;;;23.62;52.55;101547.34;1044481;28;646;-76
2022/07/24 00:37:46;;;;;;;;;;;;;;;23.61;51.93;101538.34;1044522;28;654;-76
2022/07/24 00:38:36;;;;;;;;;;;;;;;23.60;52.28;101546.66;1044490;28;712;-76
2022/07/24 00:39:27;;;;;;;;;;;;;;;23.60;51.97;101549.38;1044734;28;701;-76
2022/07/24 00:40:17;;;;;;;;;;;;;;;23.58;52.41;101545.97;1048375;28;618;-76
2022/07/24 00:41:08;;;;;;;;;;;;;;;23.57;52.23;101547.00;1048345;28;720;-77
2022/07/24 00:41:58;;;;;;;;;;;;;;;23.57;52.32;101547.84;1041242;28;825;-76
2022/07/24 00:42:48;;;;;;;;;;;;;;;23.57;52.29;101547.84;1041646;28;888;-76
2022/07/24 00:43:39;;;;;;;;;;;;;;;23.54;51.94;101546.31;1043884;28;656;-76
2022/07/24 00:44:29;;;;;;;;;;;;;;;23.56;52.12;101545.28;1048477;28;678;-76
2022/07/24 00:45:20;;;;;;;;;;;;;;;23.58;52.42;101541.38;1048449;28;642;-76
2022/07/24 00:46:11;;;;;;;;;;;;;;;23.58;52.28;101546.81;1044617;28;627;-76
2022/07/24 00:47:01;;;;;;;;;;;;;;;23.55;51.90;101547.16;1044329;28;681;-75
2022/07/24 00:47:51;;;;;;;;;;;;;;;23.56;52.40;101548.00;1044621;28;634;-76
2022/07/24 00:48:42;;;;;;;;;;;;;;;23.55;52.28;101558.03;1044420;28;705;-76
2022/07/24 00:49:32;;;;;;;;;;;;;;;23.52;52.11;101550.19;1048331;28;665;-76
2022/07/24 00:50:23;;;;;;;;;;;;;;;23.53;52.30;101549.19;1048399;28;642;-76
2022/07/24 00:51:13;;;;;;;;;;;;;;;23.52;52.35;101556.50;1041229;28;657;-76
2022/07/24 00:52:04;;;;;;;;;;;;;;;23.53;52.35;101552.75;1044728;28;685;-76
2022/07/24 00:52:54;;;;;;;;;;;;;;;23.52;52.66;101553.78;1045310;28;710;-76
2022/07/24 00:53:45;;;;;;;;;;;;;;;23.52;52.72;101551.06;1041634;28;688;-76
2022/07/24 00:54:35;;;;;;;;;;;;;;;23.53;52.54;101554.63;1041011;28;652;-76
2022/07/24 00:55:26;;;;;;;;;;;;;;;23.52;52.31;101547.47;1041015;28;702;-76
2022/07/24 00:56:16;;;;;;;;;;;;;;;23.51;52.48;101552.06;1041016;28;645;-76
2022/07/24 00:57:06;;;;;;;;;;;;;;;23.51;52.36;101548.47;1040937;28;637;-76
2022/07/24 00:57:57;;;;;;;;;;;;;;;23.51;52.16;101548.47;1040854;28;693;-75
2022/07/24 00:58:47;;;;;;;;;;;;;;;23.50;52.24;101554.91;1040928;28;634;-75
2022/07/24 00:59:38;;;;;;;;;;;;;;;23.49;51.99;101551.34;1040995;28;672;-76
2022/07/24 01:00:28;;;;;;;;;;;;;;;23.47;52.36;101550.66;1040943;28;641;-75
2022/07/24 01:01:18;;;;;;;;;;;;;;;23.45;52.59;101551.88;1041012;28;872;-76
2022/07/24 01:02:09;;;;;;;;;;;;;;;23.47;52.51;101549.81;1044070;28;685;-76
2022/07/24 01:02:59;;;;;;;;;;;;;;;23.47;52.64;101545.22;1045277;28;744;-76
2022/07/24 01:03:50;;;;;;;;;;;;;;;23.49;52.37;101547.78;1036605;28;668;-76
2022/07/24 01:04:40;;;;;;;;;;;;;;;23.50;52.22;101554.91;1040632;28;680;-76
2022/07/24 01:05:31;;;;;;;;;;;;;;;23.50;52.55;101555.78;1045184;28;606;-76
2022/07/24 01:06:21;;;;;;;;;;;;;;;23.49;52.49;101547.78;1041624;28;622;-75
2022/07/24 01:07:12;;;;;;;;;;;;;;;23.50;52.41;101541.31;1040999;28;657;-76
2022/07/24 01:08:02;;;;;;;;;;;;;;;23.50;52.34;101549.47;1044408;28;618;-76
2022/07/24 01:08:53;;;;;;;;;;;;;;;23.49;52.32;101542.34;1044609;28;634;-76
2022/07/24 01:09:43;;;;;;;;;;;;;;;23.46;51.86;101543.56;1045025;28;669;-76
2022/07/24 01:10:33;;;;;;;;;;;;;;;23.46;52.07;101545.41;1045053;28;693;-76
2022/07/24 01:11:24;;;;;;;;;;;;;;;23.47;52.49;101539.78;1044576;28;619;-76
2022/07/24 01:12:14;;;;;;;;;;;;;;;23.49;52.11;101540.47;1044964;28;654;-75
2022/07/24 01:13:05;;;;;;;;;;;;;;;23.48;52.25;101546.06;1044520;28;637;-76
2022/07/24 01:13:55;;;;;;;;;;;;;;;23.46;52.46;101542.69;1044970;28;641;-76
2022/07/24 01:14:46;;;;;;;;;;;;;;;23.45;52.13;101543.72;1044488;28;669;-76
2022/07/24 01:15:36;;;;;;;;;;;;;;;23.45;52.81;101547.28;1045624;28;643;-76
2022/07/24 01:16:27;;;;;;;;;;;;;;;23.46;52.66;101542.69;1044959;28;665;-75
2022/07/24 01:17:17;;;;;;;;;;;;;;;23.44;52.32;101550.16;1044964;28;607;-75
2022/07/24 01:18:08;;;;;;;;;;;;;;;23.45;52.41;101552.72;1044376;28;1969;-75
2022/07/24 01:18:58;;;;;;;;;;;;;;;23.46;52.36;101548.13;1044936;28;804;-76
2022/07/24 01:19:48;;;;;;;;;;;;;;;23.47;52.65;101550.66;1040667;28;646;-75
2022/07/24 01:20:39;;;;;;;;;;;;;;;23.47;52.27;101541.66;1040557;28;661;-76
2022/07/24 01:21:29;;;;;;;;;;;;;;;23.48;52.03;101548.78;1044444;28;649;-76
2022/07/24 01:22:20;;;;;;;;;;;;;;;23.47;52.54;101547.94;1044935;28;681;-76
2022/07/24 01:23:10;;;;;;;;;;;;;;;23.46;52.19;101549.00;1045031;28;603;-76
2022/07/24 01:24:01;;;;;;;;;;;;;;;23.46;52.85;101554.44;1045045;28;705;-76
2022/07/24 01:24:51;;;;;;;;;;;;;;;23.48;52.37;101552.38;1044963;28;591;-76
2022/07/24 01:25:41;;;;;;;;;;;;;;;23.49;52.23;101551.34;1044856;28;642;-76
2022/07/24 01:26:32;;;;;;;;;;;;;;;23.46;52.25;101553.56;1046401;28;628;-75
2022/07/24 01:27:22;;;;;;;;;;;;;;;23.43;52.45;101549.31;1046396;28;657;-76
2022/07/24 01:28:13;;;;;;;;;;;;;;;23.45;52.62;101554.59;1046437;28;610;-75
2022/07/24 01:29:03;;;;;;;;;;;;;;;23.42;52.65;101555.78;1045590;28;690;-75
2022/07/24 01:29:54;;;;;;;;;;;;;;;23.44;52.89;101553.75;1045735;28;673;-76
2022/07/24 01:30:44;;;;;;;;;;;;;;;23.43;52.75;101546.59;1045726;28;628;-75
2022/07/24 01:31:34;;;;;;;;;;;;;;;23.42;52.43;101549.47;1045810;28;670;-76
2022/07/24 01:32:25;;;;;;;;;;;;;;;23.43;52.85;101556.63;1046387;28;641;-75
2022/07/24 01:33:15;;;;;;;;;;;;;;;23.42;52.66;101546.75;1045696;28;624;-76
2022/07/24 01:34:06;;;;;;;;;;;;;;;23.41;52.30;101550.50;1045767;28;743;-76
2022/07/24 01:34:56;;;;;;;;;;;;;;;23.40;52.76;101548.78;1045695;28;606;-75
2022/07/24 01:35:47;;;;;;;;;;;;;;;23.39;52.73;101547.09;1045791;28;663;-76
2022/07/24 01:36:37;;;;;;;;;;;;;;;23.38;52.54;101546.22;1045703;28;673;-76
2022/07/24 01:37:27;;;;;;;;;;;;;;;23.38;52.37;101548.09;1045847;28;642;-76
2022/07/24 01:38:18;;;;;;;;;;;;;;;23.38;52.78;101550.81;1045415;28;1914;-75
2022/07/24 01:39:08;;;;;;;;;;;;;;;23.38;52.48;101548.09;1045557;28;586;-76
2022/07/24 01:39:59;;;;;;;;;;;;;;;23.37;52.27;101543.69;1045695;28;614;-76
2022/07/24 01:40:49;;;;;;;;;;;;;;;23.37;52.70;101540.97;1045705;28;607;-77
2022/07/24 01:41:40;;;;;;;;;;;;;;;23.35;52.32;101543.00;1045729;28;682;-75
2022/07/24 01:42:30;;;;;;;;;;;;;;;23.34;52.27;101544.00;1045695;28;674;-76
2022/07/24 01:43:21;;;;;;;;;;;;;;;23.33;52.36;101543.16;1041261;28;670;-75
2022/07/24 01:44:11;;;;;;;;;;;;;;;23.31;52.35;101544.31;1040645;28;666;-75
2022/07/24 01:45:01;;;;;;;;;;;;;;;23.31;52.63;101550.63;1045188;28;705;-75
2022/07/24 01:45:52;;;;;;;;;;;;;;;23.31;52.82;101539.75;1041861;28;703;-75
2022/07/24 01:46:42;;;;;;;;;;;;;;;23.31;52.34;101544.31;1041252;28;701;-75
2022/07/24 01:47:33;;;;;;;;;;;;;;;23.30;52.82;101529.03;1040729;28;690;-75
2022/07/24 01:48:23;;;;;;;;;;;;;;;23.31;52.52;101533.44;1046906;28;712;-75
2022/07/24 01:49:14;;;;;;;;;;;;;;;23.29;52.56;101536.34;1045689;28;662;-75
2022/07/24 01:50:04;;;;;;;;;;;;;;;23.30;52.49;101532.59;1045646;28;646;-75
2022/07/24 01:50:54;;;;;;;;;;;;;;;23.29;52.44;101536.34;1047863;28;1192;-75
2022/07/24 01:51:45;;;;;;;;;;;;;;;23.29;52.53;101525.44;1049813;28;646;-76
2022/07/24 01:52:35;;;;;;;;;;;;;;;23.29;52.57;101528.16;1049757;28;645;-75
2022/07/24 01:53:26;;;;;;;;;;;;;;;23.29;53.09;101524.63;1049840;28;712;-76
2022/07/24 01:54:16;;;;;;;;;;;;;;;23.27;52.87;101526.66;1049807;28;708;-75
2022/07/24 01:55:07;;;;;;;;;;;;;;;23.27;53.08;101518.50;1049921;28;634;-76
2022/07/24 01:55:57;;;;;;;;;;;;;;;23.26;52.70;101525.81;1049689;28;662;-75
2022/07/24 01:56:47;;;;;;;;;;;;;;;23.27;52.90;101521.22;1049782;28;594;-75
2022/07/24 01:57:38;;;;;;;;;;;;;;;23.26;53.04;101520.38;1044743;28;618;-76
2022/07/24 01:58:28;;;;;;;;;;;;;;;23.25;53.02;101521.38;1045252;28;1901;-75
2022/07/24 01:59:19;;;;;;;;;;;;;;;23.26;52.97;101519.53;1049741;28;978;-76
2022/07/24 02:00:12;;;;;;;;;;;;;;;23.26;52.87;101523.09;1049684;28;696;-76
2022/07/24 02:01:03;;;;;;;;;;;;;;;23.28;52.82;101523.78;1044829;28;657;-76
2022/07/24 02:01:53;;;;;;;;;;;;;;;23.28;52.87;101528.38;1044829;28;829;-76
2022/07/24 02:02:44;;;;;;;;;;;;;;;23.27;52.64;101526.66;1049792;28;613;-75
2022/07/24 02:03:34;;;;;;;;;;;;;;;23.27;52.58;101534.81;1049763;28;660;-76
2022/07/24 02:04:24;;;;;;;;;;;;;;;23.25;53.05;101526.81;1049742;28;656;-76
2022/07/24 02:05:15;;;;;;;;;;;;;;;23.25;52.92;101528.69;1049779;28;634;-76
2022/07/24 02:06:05;;;;;;;;;;;;;;;23.24;53.24;101530.56;1049654;28;607;-76
2022/07/24 02:06:56;;;;;;;;;;;;;;;23.23;52.88;101526.13;1049777;28;742;-75
2022/07/24 02:07:46;;;;;;;;;;;;;;;23.23;52.77;101519.84;1046061;28;1483;-76
2022/07/24 02:08:37;;;;;;;;;;;;;;;23.22;53.42;101518.13;1045049;28;709;-75
2022/07/24 02:09:27;;;;;;;;;;;;;;;23.23;52.84;101508.97;1044557;28;684;-76
2022/07/24 02:10:18;;;;;;;;;;;;;;;23.21;53.30;101517.28;1044970;28;681;-76
2022/07/24 02:11:08;;;;;;;;;;;;;;;23.20;53.23;101516.44;1044949;28;626;-76
2022/07/24 02:11:58;;;;;;;;;;;;;;;23.20;52.92;101521.88;1045009;28;622;-76
2022/07/24 02:12:49;;;;;;;;;;;;;;;23.20;53.45;101512.88;1045092;28;713;-76
2022/07/24 02:13:39;;;;;;;;;;;;;;;23.20;53.43;101511.00;1045008;28;648;-76
2022/07/24 02:14:30;;;;;;;;;;;;;;;23.20;53.42;101513.72;1044973;28;666;-75
2022/07/24 02:15:20;;;;;;;;;;;;;;;23.20;53.01;101508.28;1045087;28;709;-75
2022/07/24 02:16:11;;;;;;;;;;;;;;;23.22;53.43;101520.84;1045093;28;611;-75
2022/07/24 02:17:01;;;;;;;;;;;;;;;23.20;53.51;101511.00;1044969;28;681;-75
2022/07/24 02:17:51;;;;;;;;;;;;;;;23.22;52.98;101516.28;1045056;28;652;-75
2022/07/24 02:18:42;;;;;;;;;;;;;;;23.22;53.63;101526.28;1045112;28;598;-75
2022/07/24 02:19:32;;;;;;;;;;;;;;;23.20;53.32;101512.88;1045049;28;705;-76
2022/07/24 02:20:23;;;;;;;;;;;;;;;23.21;53.50;101528.16;1045148;28;701;-75
2022/07/24 02:21:13;;;;;;;;;;;;;;;23.20;52.97;101519.16;1045032;28;619;-75
2022/07/24 02:22:04;;;;;;;;;;;;;;;23.19;53.04;101514.72;1044860;28;775;-75
2022/07/24 02:22:54;;;;;;;;;;;;;;;23.15;53.36;101524.22;1044914;28;673;-75
2022/07/24 02:23:45;;;;;;;;;;;;;;;23.16;53.28;101519.63;1044772;28;721;-75
2022/07/24 02:24:35;;;;;;;;;;;;;;;23.17;53.57;101521.34;1044908;28;701;-76
2022/07/24 02:25:26;;;;;;;;;;;;;;;23.16;53.00;101523.22;1048877;28;686;-76
2022/07/24 02:26:16;;;;;;;;;;;;;;;23.19;53.37;101522.88;1045835;28;692;-76
2022/07/24 02:27:07;;;;;;;;;;;;;;;23.18;53.59;101515.75;1041262;28;700;-76
2022/07/24 02:27:57;;;;;;;;;;;;;;;23.18;53.58;101513.03;1042316;28;629;-76
2022/07/24 02:28:48;;;;;;;;;;;;;;;23.19;53.15;101520.16;1040627;28;674;-77
2022/07/24 02:29:39;;;;;;;;;;;;;;;23.19;53.06;101514.72;1044275;28;1230;-76
2022/07/24 02:30:30;;;;;;;;;;;;;;;23.18;53.58;101509.44;1046011;28;1013;-76
2022/07/24 02:31:20;;;;;;;;;;;;;;;23.17;53.41;101511.31;1044323;28;623;-76
2022/07/24 02:32:11;;;;;;;;;;;;;;;23.17;53.45;101519.47;1046162;28;583;-75
2022/07/24 02:33:01;;;;;;;;;;;;;;;23.16;53.52;101515.06;1041694;28;733;-76
2022/07/24 02:33:52;;;;;;;;;;;;;;;23.16;53.51;101517.78;1041171;28;712;-77
2022/07/24 02:34:42;;;;;;;;;;;;;;;23.13;53.63;101515.38;1045466;28;638;-77
2022/07/24 02:35:33;;;;;;;;;;;;;;;23.14;53.34;101508.94;1045565;28;693;-77
2022/07/24 02:36:23;;;;;;;;;;;;;;;23.14;53.47;101513.50;1044926;28;669;-76
2022/07/24 02:37:13;;;;;;;;;;;;;;;23.13;53.73;101509.94;1045136;28;720;-77
2022/07/24 02:38:04;;;;;;;;;;;;;;;23.13;53.60;101518.09;1044889;28;979;-77
2022/07/24 02:38:54;;;;;;;;;;;;;;;23.12;53.49;101508.25;1045021;28;670;-76
2022/07/24 02:39:45;;;;;;;;;;;;;;;23.11;53.79;101511.97;1045509;28;669;-76
2022/07/24 02:40:35;;;;;;;;;;;;;;;23.11;53.68;101509.25;1045557;28;665;-77
2022/07/24 02:41:26;;;;;;;;;;;;;;;23.09;53.31;101505.03;1045548;28;672;-76
2022/07/24 02:42:16;;;;;;;;;;;;;;;23.09;53.75;101492.28;1045506;28;746;-76
2022/07/24 02:43:06;;;;;;;;;;;;;;;23.10;53.38;101491.25;1045417;28;623;-76
2022/07/24 02:43:57;;;;;;;;;;;;;;;23.09;53.92;101492.28;1045496;28;630;-76
2022/07/24 02:44:47;;;;;;;;;;;;;;;23.08;53.86;101496.00;1045496;28;707;-76
2022/07/24 02:45:38;;;;;;;;;;;;;;;23.07;53.72;101488.03;1041613;28;791;-77
2022/07/24 02:46:28;;;;;;;;;;;;;;;23.07;53.46;101488.88;1041629;28;750;-77
2022/07/24 02:47:19;;;;;;;;;;;;;;;23.06;53.72;101487.16;1041058;28;658;-76
2022/07/24 02:48:09;;;;;;;;;;;;;;;23.05;53.76;101496.34;1045963;28;558;-77
2022/07/24 02:48:59;;;;;;;;;;;;;;;23.05;53.53;101501.78;1045486;28;1142;-77
2022/07/24 02:49:50;;;;;;;;;;;;;;;23.06;53.64;101498.03;1044881;28;661;-76
2022/07/24 02:50:40;;;;;;;;;;;;;;;23.06;53.78;101503.47;1045850;28;1200;-76
2022/07/24 02:51:31;;;;;;;;;;;;;;;23.06;53.85;101505.34;1049579;28;638;-76
2022/07/24 02:52:21;;;;;;;;;;;;;;;23.06;53.59;101503.47;1049555;28;582;-76
2022/07/24 02:53:12;;;;;;;;;;;;;;;23.08;53.96;101495.16;1048553;28;633;-76
2022/07/24 02:54:02;;;;;;;;;;;;;;;23.06;53.50;101494.47;1049484;28;622;-76
2022/07/24 02:54:52;;;;;;;;;;;;;;;23.05;53.79;101501.78;1044563;28;702;-76
2022/07/24 02:55:43;;;;;;;;;;;;;;;23.03;53.67;101498.38;1045196;28;681;-77
2022/07/24 02:56:34;;;;;;;;;;;;;;;23.04;53.95;101493.78;1048447;28;630;-76
2022/07/24 02:57:24;;;;;;;;;;;;;;;23.03;53.92;101487.50;1049516;28;688;-76
2022/07/24 02:58:15;;;;;;;;;;;;;;;23.02;53.54;101485.78;1049427;28;1914;-76
2022/07/24 02:59:05;;;;;;;;;;;;;;;23.03;53.56;101490.22;1049558;28;610;-76
2022/07/24 02:59:56;;;;;;;;;;;;;;;23.02;53.80;101490.38;1049663;28;661;-76
2022/07/24 03:00:46;;;;;;;;;;;;;;;23.01;54.22;101484.09;1049542;28;691;-77
2022/07/24 03:01:36;;;;;;;;;;;;;;;23.00;53.72;101487.81;1049606;28;744;-76
2022/07/24 03:02:27;;;;;;;;;;;;;;;23.03;54.01;101492.94;1044411;28;658;-76
2022/07/24 03:03:17;;;;;;;;;;;;;;;23.03;53.82;101483.91;1044497;28;607;-76
2022/07/24 03:04:08;;;;;;;;;;;;;;;23.02;53.75;101495.81;1049421;28;657;-76
2022/07/24 03:04:58;;;;;;;;;;;;;;;23.03;54.01;101494.78;1049509;28;602;-76
2022/07/24 03:05:49;;;;;;;;;;;;;;;23.01;54.17;101494.97;1049653;28;678;-76
2022/07/24 03:06:39;;;;;;;;;;;;;;;23.01;54.20;101484.09;1049479;28;679;-77
2022/07/24 03:07:29;;;;;;;;;;;;;;;23.01;54.22;101484.09;1047635;28;1468;-76
2022/07/24 03:08:20;;;;;;;;;;;;;;;23.01;54.12;101475.94;1044919;28;610;-77
2022/07/24 03:09:10;;;;;;;;;;;;;;;23.02;53.77;101490.38;1044757;28;666;-76
2022/07/24 03:10:01;;;;;;;;;;;;;;;23.00;54.24;101471.50;1044906;28;662;-76
2022/07/24 03:10:51;;;;;;;;;;;;;;;22.99;54.10;101472.53;1044776;28;654;-76
2022/07/24 03:11:41;;;;;;;;;;;;;;;22.99;53.88;101477.09;1044751;28;646;-77
2022/07/24 03:12:32;;;;;;;;;;;;;;;22.99;54.26;101474.38;1044994;28;638;-77
2022/07/24 03:13:22;;;;;;;;;;;;;;;22.98;53.79;101467.25;1044832;28;693;-76
2022/07/24 03:14:13;;;;;;;;;;;;;;;22.97;53.84;101471.81;1048728;28;756;-76
2022/07/24 03:15:03;;;;;;;;;;;;;;;22.97;54.14;101470.97;1048600;28;685;-75
2022/07/24 03:15:54;;;;;;;;;;;;;;;22.94;54.36;101466.72;1044943;28;658;-76
2022/07/24 03:16:44;;;;;;;;;;;;;;;22.94;53.94;101464.00;1044830;28;591;-75
2022/07/24 03:17:34;;;;;;;;;;;;;;;22.91;54.17;101461.63;1044788;28;638;-76
2022/07/24 03:18:25;;;;;;;;;;;;;;;22.92;54.21;101466.06;1044847;28;1893;-75
2022/07/24 03:19:15;;;;;;;;;;;;;;;22.93;54.14;101461.47;1044728;28;660;-75
2022/07/24 03:20:06;;;;;;;;;;;;;;;22.93;54.40;101464.19;1044943;28;698;-76
2022/07/24 03:20:56;;;;;;;;;;;;;;;22.92;54.29;101468.78;1044734;28;622;-76
2022/07/24 03:21:47;;;;;;;;;;;;;;;22.92;54.34;101466.06;1048208;28;669;-75
2022/07/24 03:22:37;;;;;;;;;;;;;;;22.93;54.27;101466.91;1048495;28;697;-74
2022/07/24 03:23:27;;;;;;;;;;;;;;;22.93;54.06;101470.44;1044869;28;595;-74
2022/07/24 03:24:18;;;;;;;;;;;;;;;22.92;54.46;101468.78;1044878;28;673;-74
2022/07/24 03:25:08;;;;;;;;;;;;;;;22.92;53.99;101463.34;1044785;28;692;-74
2022/07/24 03:25:59;;;;;;;;;;;;;;;22.92;54.45;101468.78;1044764;28;668;-74
2022/07/24 03:26:49;;;;;;;;;;;;;;;22.92;54.57;101474.22;1044653;28;637;-74
2022/07/24 03:27:40;;;;;;;;;;;;;;;22.92;54.48;101468.78;1044710;28;1286;-74
2022/07/24 03:28:30;;;;;;;;;;;;;;;22.92;54.08;101473.38;1044641;28;735;-75
2022/07/24 03:29:20;;;;;;;;;;;;;;;22.93;54.57;101470.44;1044707;28;757;-75
2022/07/24 03:30:11;;;;;;;;;;;;;;;22.94;54.37;101471.31;1044907;28;668;-74
2022/07/24 03:31:01;;;;;;;;;;;;;;;22.92;54.10;101466.06;1044701;28;606;-74
2022/07/24 03:31:52;;;;;;;;;;;;;;;22.93;54.08;101472.34;1044673;28;673;-75
2022/07/24 03:32:42;;;;;;;;;;;;;;;22.91;54.28;101461.63;1048542;28;685;-75
2022/07/24 03:33:33;;;;;;;;;;;;;;;22.91;54.59;101460.78;1048567;28;614;-76
2022/07/24 03:34:23;;;;;;;;;;;;;;;22.90;54.16;101462.66;1044903;28;681;-75
2022/07/24 03:35:14;;;;;;;;;;;;;;;22.90;54.08;101467.22;1044843;28;642;-75
2022/07/24 03:36:04;;;;;;;;;;;;;;;22.90;54.45;101464.50;1044576;28;725;-76
2022/07/24 03:36:54;;;;;;;;;;;;;;;22.90;54.17;101465.38;1044684;28;616;-75
2022/07/24 03:37:45;;;;;;;;;;;;;;;22.90;54.11;101473.53;1044692;28;637;-75
2022/07/24 03:38:35;;;;;;;;;;;;;;;22.89;54.54;101465.53;1044603;28;1898;-75
2022/07/24 03:39:26;;;;;;;;;;;;;;;22.88;54.69;101461.97;1044821;28;652;-75
2022/07/24 03:40:16;;;;;;;;;;;;;;;22.88;54.43;101470.13;1044638;28;673;-75
2022/07/24 03:41:07;;;;;;;;;;;;;;;22.85;54.25;101467.72;1044814;28;643;-75
2022/07/24 03:41:57;;;;;;;;;;;;;;;22.85;54.78;101462.28;1044484;28;659;-75
2022/07/24 03:42:47;;;;;;;;;;;;;;;22.86;54.64;101453.13;1044615;28;575;-75
2022/07/24 03:43:38;;;;;;;;;;;;;;;22.85;54.61;101457.69;1044827;28;701;-75
2022/07/24 03:44:28;;;;;;;;;;;;;;;22.86;54.68;101466.72;1044571;28;638;-75
2022/07/24 03:45:19;;;;;;;;;;;;;;;22.84;54.66;101463.28;1044729;28;689;-75
2022/07/24 03:46:09;;;;;;;;;;;;;;;22.85;54.70;101463.13;1044566;28;686;-75
2022/07/24 03:46:59;;;;;;;;;;;;;;;22.86;54.71;101464.00;1044672;28;567;-75
2022/07/24 03:47:50;;;;;;;;;;;;;;;22.85;54.75;101467.72;1044186;28;622;-75
2022/07/24 03:48:40;;;;;;;;;;;;;;;22.85;54.36;101459.56;1044618;28;952;-74
2022/07/24 03:49:31;;;;;;;;;;;;;;;22.84;54.67;101466.00;1044719;28;682;-75
2022/07/24 03:50:21;;;;;;;;;;;;;;;22.84;54.59;101463.28;1044550;28;654;-75
2022/07/24 03:51:12;;;;;;;;;;;;;;;22.84;54.37;101466.00;1040614;28;697;-75
2022/07/24 03:52:02;;;;;;;;;;;;;;;22.83;54.55;101458.88;1041059;28;702;-75
2022/07/24 03:52:52;;;;;;;;;;;;;;;22.83;54.80;101467.03;1041027;28;645;-75
2022/07/24 03:53:43;;;;;;;;;;;;;;;22.82;54.42;101468.03;1045454;28;633;-75
2022/07/24 03:54:33;;;;;;;;;;;;;;;22.81;54.51;101461.75;1045415;28;680;-76
2022/07/24 03:55:24;;;;;;;;;;;;;;;22.81;54.74;101460.91;1041316;28;704;-76
2022/07/24 03:56:15;;;;;;;;;;;;;;;22.81;54.74;101466.34;1041058;28;535;-76
2022/07/24 03:57:06;;;;;;;;;;;;;;;22.81;54.94;101463.63;1041057;28;803;-76
2022/07/24 03:57:56;;;;;;;;;;;;;;;22.80;54.66;101464.63;1041094;28;632;-76
2022/07/24 03:58:47;;;;;;;;;;;;;;;22.81;55.01;101471.78;1041063;28;689;-76
2022/07/24 03:59:37;;;;;;;;;;;;;;;22.80;55.02;101465.47;1045519;28;625;-75
2022/07/24 04:00:28;;;;;;;;;;;;;;;22.80;54.91;101464.63;1044974;28;641;-75
2022/07/24 04:01:18;;;;;;;;;;;;;;;22.80;54.99;101467.34;1041295;28;673;-75
2022/07/24 04:02:08;;;;;;;;;;;;;;;22.80;54.98;101465.47;1041193;28;626;-75
2022/07/24 04:02:59;;;;;;;;;;;;;;;22.80;54.93;101460.06;1041039;28;716;-74
2022/07/24 04:03:49;;;;;;;;;;;;;;;22.79;54.99;101460.22;1041041;28;698;-75
2022/07/24 04:04:40;;;;;;;;;;;;;;;22.79;54.56;101463.78;1045400;28;668;-74
2022/07/24 04:05:30;;;;;;;;;;;;;;;22.79;54.86;101465.66;1044922;28;693;-75
2022/07/24 04:06:21;;;;;;;;;;;;;;;22.78;55.06;101462.06;1036929;28;657;-75
2022/07/24 04:07:11;;;;;;;;;;;;;;;22.79;54.75;101462.94;1040168;28;638;-75
2022/07/24 04:08:01;;;;;;;;;;;;;;;22.79;54.65;101463.78;1040740;28;658;-75
2022/07/24 04:08:52;;;;;;;;;;;;;;;22.77;54.65;101470.38;1037308;28;760;-75
2022/07/24 04:09:42;;;;;;;;;;;;;;;22.76;54.78;101464.06;1041064;28;610;-75
2022/07/24 04:10:33;;;;;;;;;;;;;;;22.76;54.72;101469.50;1040511;28;735;-76
2022/07/24 04:11:23;;;;;;;;;;;;;;;22.78;54.79;101467.50;1040987;28;645;-75
2022/07/24 04:12:14;;;;;;;;;;;;;;;22.79;55.00;101463.78;1041054;28;686;-75
2022/07/24 04:13:04;;;;;;;;;;;;;;;22.78;55.12;101463.94;1044451;28;662;-75
2022/07/24 04:13:54;;;;;;;;;;;;;;;22.78;54.84;101462.06;1045345;28;673;-75
2022/07/24 04:14:45;;;;;;;;;;;;;;;22.78;54.79;101466.66;1041296;28;634;-75
2022/07/24 04:15:35;;;;;;;;;;;;;;;22.77;54.73;101468.53;1040937;28;619;-76
2022/07/24 04:16:26;;;;;;;;;;;;;;;22.77;55.01;101470.38;1041237;28;697;-75
2022/07/24 04:17:16;;;;;;;;;;;;;;;22.77;55.13;101464.97;1040442;28;725;-75
2022/07/24 04:18:06;;;;;;;;;;;;;;;22.77;55.21;101464.97;1041005;28;646;-75
2022/07/24 04:18:57;;;;;;;;;;;;;;;22.76;54.91;101471.38;1041118;28;694;-77
2022/07/24 04:19:47;;;;;;;;;;;;;;;22.77;54.83;101473.97;1040441;28;725;-76
2022/07/24 04:20:38;;;;;;;;;;;;;;;22.77;54.79;101473.09;1041072;28;707;-76
2022/07/24 04:21:28;;;;;;;;;;;;;;;22.76;54.82;101474.09;1041053;28;701;-77
2022/07/24 04:22:19;;;;;;;;;;;;;;;22.76;54.87;101471.38;1041324;28;626;-76
2022/07/24 04:23:09;;;;;;;;;;;;;;;22.76;54.77;101474.94;1040402;28;681;-77
2022/07/24 04:23:59;;;;;;;;;;;;;;;22.76;54.78;101465.94;1040952;28;658;-76
2022/07/24 04:24:50;;;;;;;;;;;;;;;22.75;55.27;101473.25;1040505;28;693;-76
2022/07/24 04:25:40;;;;;;;;;;;;;;;22.75;54.98;101475.13;1040939;28;610;-77